CYNA

Natashquan Airport

Natashquan, Quebec, Canada
METAR CYNA 220500Z AUTO 02004KT 9SM CLR 05/05 A2983 RMK SLP103
Observed Flight Rules
Jun-22 @ 05:00 UTC (51 minutes ago) Visual Flight Rules
Wind Visibility Clouds
20° at 4 knots 9 miles
  • Clear skies
Temperatures Readings
Current 5°C / 41°F
Dewpoint 5°C / 41°F
Humidity 100%
Altimeter 29.83" Hg
Pressure 1010.3 hPa
Elevation 11
METAR CYNA 220500Z AUTO 02004KT 9SM CLR 05/05 A2983 RMK SLP103
Observed Flight Rules
Jun-22 @ 05:00 UTC
(51 minutes ago)
VFR
Wind Visibility
20° at 4 knots 9 miles
Clouds
  • Clear skies
Temperature Dewpoint
5°C / 41°F 5°C / 41°F
Humidity Altimeter Pressure
100% 29.83" Hg 1010.3 hPa